Time;durP1;ratioP1;P1;durP2;ratioP2;P2;SDS_P1;SDS_P2;PMS_P1;PMS_P2;Temp;Humidity;BMP_temperature;BMP_pressure;BME280_temperature;BME280_humidity;BME280_pressure;Samples;Min_cycle;Max_cycle;Signal;HPM_P1;HPM_P2
2023/09/15 00:03:24;;;;;;;0.03;0.03;;;;;;;16.75;100.00;102015.81;10452693;28;20059;-76
2023/09/15 00:08:25;;;;;;;0.17;0.17;;;;;;;16.67;100.00;102012.19;10435642;28;20045;-75
2023/09/15 00:13:27;;;;;;;0.40;0.40;;;;;;;16.94;100.00;102011.00;10435558;28;20496;-76
2023/09/15 00:18:29;;;;;;;0.00;0.00;;;;;;;16.79;100.00;102002.00;10451996;28;20439;-76
2023/09/15 00:23:31;;;;;;;0.47;0.38;;;;;;;16.76;100.00;101996.75;10434750;28;20135;-76
2023/09/15 00:28:33;;;;;;;0.22;0.10;;;;;;;17.15;100.00;102004.38;10451184;28;20041;-76
2023/09/15 00:33:35;;;;;;;0.00;0.00;;;;;;;16.93;100.00;102004.03;10434738;28;20068;-75
2023/09/15 00:38:37;;;;;;;0.00;0.00;;;;;;;16.72;100.00;102000.13;10434844;28;20052;-76
2023/09/15 00:43:38;;;;;;;0.10;0.10;;;;;;;16.55;100.00;101997.25;10451000;28;20404;-76
2023/09/15 00:48:40;;;;;;;0.15;0.10;;;;;;;16.38;100.00;101993.47;10433028;28;20036;-76
2023/09/15 00:53:43;;;;;;;0.20;0.17;;;;;;;16.28;100.00;101987.19;10450570;28;20114;-76
2023/09/15 00:58:46;;;;;;;0.10;0.10;;;;;;;16.58;100.00;101986.00;10441476;28;20049;-76
2023/09/15 01:03:48;;;;;;;0.30;0.10;;;;;;;16.23;100.00;101988.81;10434991;28;20563;-76
2023/09/15 01:08:51;;;;;;;0.03;0.00;;;;;;;16.40;100.00;101979.63;10433615;28;20110;-76
2023/09/15 01:13:53;;;;;;;0.00;0.00;;;;;;;16.16;100.00;101977.41;10450232;28;20041;-76
2023/09/15 01:19:09;;;;;;;0.10;0.10;;;;;;;16.07;100.00;101966.84;10445102;28;20484;-76
2023/09/15 01:24:38;;;;;;;0.20;0.17;;;;;;;16.20;100.00;101967.94;10430040;28;20502;-76
2023/09/15 01:29:52;;;;;;;0.00;0.00;;;;;;;16.29;100.00;101965.53;10425246;28;20041;-76
2023/09/15 01:34:54;;;;;;;0.17;0.17;;;;;;;16.23;100.00;101952.41;10426808;28;20057;-76
2023/09/15 01:39:59;;;;;;;0.00;0.00;;;;;;;16.30;100.00;101955.19;10447687;28;20069;-76
2023/09/15 01:45:00;;;;;;;0.10;0.10;;;;;;;16.24;100.00;101948.97;10449019;28;20055;-76
2023/09/15 01:50:04;;;;;;;0.08;0.08;;;;;;;16.23;100.00;101947.22;10432090;28;20098;-76
2023/09/15 01:55:07;;;;;;;0.10;0.10;;;;;;;16.31;100.00;101956.06;10434320;28;20045;-76
2023/09/15 02:00:10;;;;;;;0.00;0.00;;;;;;;16.34;100.00;101941.38;10432698;28;20045;-76
2023/09/15 02:05:23;;;;;;;0.08;0.00;;;;;;;16.01;100.00;101946.81;10448095;28;20060;-76
2023/09/15 02:10:25;;;;;;;0.10;0.10;;;;;;;15.82;100.00;101946.38;10431053;28;20044;-76
2023/09/15 02:15:26;;;;;;;0.55;0.25;;;;;;;15.06;100.00;101946.44;10431534;28;20057;-76
2023/09/15 02:20:30;;;;;;;0.65;0.38;;;;;;;14.65;100.00;101949.72;10445114;28;20500;-75
2023/09/15 02:25:34;;;;;;;0.25;0.05;;;;;;;15.32;100.00;101948.75;10430545;28;20053;-76
2023/09/15 02:30:37;;;;;;;0.10;0.10;;;;;;;15.69;100.00;101952.16;10445782;28;20048;-76
2023/09/15 02:35:39;;;;;;;0.00;0.00;;;;;;;15.72;100.00;101944.44;10447152;28;20126;-76
2023/09/15 02:40:41;;;;;;;0.00;0.00;;;;;;;15.50;100.00;101941.38;10426627;28;20045;-76
2023/09/15 02:45:42;;;;;;;0.00;0.00;;;;;;;15.68;100.00;101940.91;10453134;28;20049;-76
2023/09/15 02:50:45;;;;;;;0.10;0.10;;;;;;;15.42;100.00;101937.75;10438245;28;20041;-76
2023/09/15 02:56:02;;;;;;;0.05;0.05;;;;;;;15.16;100.00;101931.94;10452847;28;20055;-76
2023/09/15 03:01:12;;;;;;;0.00;0.00;;;;;;;15.07;100.00;101927.44;10454309;28;20079;-76
2023/09/15 03:06:16;;;;;;;0.00;0.00;;;;;;;15.34;100.00;101921.09;10452531;28;20571;-75
2023/09/15 03:11:18;;;;;;;0.28;0.17;;;;;;;15.13;100.00;101922.38;10454233;28;20053;-76
2023/09/15 03:16:23;;;;;;;0.00;0.00;;;;;;;15.20;100.00;101920.78;10436519;28;20080;-76
2023/09/15 03:21:25;;;;;;;0.00;0.00;;;;;;;15.06;100.00;101920.47;10454274;28;20067;-73
2023/09/15 03:26:27;;;;;;;0.00;0.00;;;;;;;15.00;100.00;101921.22;10442388;28;20094;-74
2023/09/15 03:31:29;;;;;;;0.00;0.00;;;;;;;15.16;100.00;101921.56;10453294;28;20045;-74
2023/09/15 03:36:31;;;;;;;0.20;0.10;;;;;;;15.39;100.00;101924.69;10452767;28;20135;-77
2023/09/15 03:41:33;;;;;;;0.10;0.10;;;;;;;15.27;100.00;101914.88;10448035;28;20049;-77
2023/09/15 03:46:35;;;;;;;0.00;0.00;;;;;;;15.03;100.00;101908.31;10445724;28;20049;-76
2023/09/15 03:51:37;;;;;;;0.00;0.00;;;;;;;15.03;100.00;101910.00;10436401;28;20053;-76
2023/09/15 03:56:39;;;;;;;0.00;0.00;;;;;;;14.87;100.00;101904.47;10452565;28;20052;-77
2023/09/15 04:01:40;;;;;;;0.10;0.00;;;;;;;14.70;100.00;101900.59;10452504;28;20102;-77
2023/09/15 04:06:43;;;;;;;0.32;0.10;;;;;;;14.39;100.00;101902.38;10428285;28;20080;-76
2023/09/15 04:11:45;;;;;;;0.03;0.03;;;;;;;14.54;100.00;101894.09;10428345;28;20122;-76
2023/09/15 04:16:47;;;;;;;0.00;0.00;;;;;;;14.46;100.00;101893.91;10451408;28;20052;-77
2023/09/15 04:21:49;;;;;;;0.00;0.00;;;;;;;14.42;100.00;101895.56;10435328;28;20072;-74
2023/09/15 04:26:51;;;;;;;0.00;0.00;;;;;;;14.18;100.00;101903.56;10435939;28;20045;-76
2023/09/15 04:31:53;;;;;;;0.00;0.00;;;;;;;13.82;100.00;101895.63;10434925;28;20045;-77
2023/09/15 04:36:55;;;;;;;0.00;0.00;;;;;;;14.11;100.00;101901.63;10447863;28;20055;-76
2023/09/15 04:41:56;;;;;;;0.00;0.00;;;;;;;14.04;100.00;101904.88;10434327;28;20091;-76
2023/09/15 04:47:00;;;;;;;0.10;0.10;;;;;;;14.19;100.00;101907.88;10451632;28;20063;-77
2023/09/15 04:52:03;;;;;;;0.30;0.22;;;;;;;14.00;100.00;101916.84;10434169;28;20037;-76
2023/09/15 04:57:05;;;;;;;0.10;0.05;;;;;;;14.33;100.00;101910.00;10433986;28;20483;-77
2023/09/15 05:02:07;;;;;;;0.00;0.00;;;;;;;14.38;100.00;101908.38;10433893;28;20045;-76
2023/09/15 05:07:09;;;;;;;0.28;0.17;;;;;;;14.38;100.00;101903.19;10448449;28;20476;-76
2023/09/15 05:12:13;;;;;;;1.15;0.25;;;;;;;14.28;100.00;101908.13;10431717;28;20167;-76
2023/09/15 05:17:15;;;;;;;0.00;0.00;;;;;;;14.15;100.00;101906.06;10454304;28;20482;-77
2023/09/15 05:22:17;;;;;;;0.00;0.00;;;;;;;14.34;100.00;101901.34;10448616;28;20049;-77
2023/09/15 05:27:19;;;;;;;0.10;0.10;;;;;;;14.38;100.00;101898.00;10430718;28;20130;-77
2023/09/15 05:32:21;;;;;;;0.80;0.20;;;;;;;14.40;100.00;101901.53;10432852;28;20044;-77
2023/09/15 05:37:22;;;;;;;0.80;0.00;;;;;;;14.80;100.00;101897.38;10432716;28;20066;-77
2023/09/15 05:42:24;;;;;;;0.10;0.10;;;;;;;14.28;100.00;101908.13;10432491;28;20393;-77
2023/09/15 05:47:26;;;;;;;0.52;0.40;;;;;;;14.75;100.00;101910.22;10432007;28;20492;-76
2023/09/15 05:52:28;;;;;;;0.00;0.00;;;;;;;14.99;100.00;101895.22;10448118;28;20583;-77
2023/09/15 05:57:30;;;;;;;0.10;0.10;;;;;;;15.20;100.00;101911.28;10432317;28;20041;-78
2023/09/15 06:02:33;;;;;;;0.00;0.00;;;;;;;15.65;100.00;101906.19;10447711;28;20484;-77
2023/09/15 06:07:36;;;;;;;0.32;0.17;;;;;;;15.93;100.00;101911.97;10431374;28;20128;-76
2023/09/15 06:12:37;;;;;;;0.10;0.10;;;;;;;16.76;100.00;101908.28;10440338;28;20135;-78
2023/09/15 06:17:39;;;;;;;0.05;0.05;;;;;;;17.48;100.00;101919.78;10429153;28;20052;-77
2023/09/15 06:22:40;;;;;;;0.00;0.00;;;;;;;18.30;100.00;101915.56;10457013;28;20063;-77
2023/09/15 06:27:42;;;;;;;0.05;0.05;;;;;;;17.71;100.00;101915.75;10456659;28;20480;-76
2023/09/15 06:32:44;;;;;;;0.30;0.30;;;;;;;17.74;100.00;101923.59;10433391;28;20042;-77
2023/09/15 06:37:45;;;;;;;0.93;0.50;;;;;;;17.70;100.00;101920.94;10449381;28;20090;-77
2023/09/15 06:42:47;;;;;;;0.60;0.35;;;;;;;18.67;100.00;101919.38;10436090;28;20050;-77
2023/09/15 06:47:48;;;;;;;0.52;0.40;;;;;;;19.94;100.00;101916.69;10446108;28;20037;-77
2023/09/15 06:52:50;;;;;;;0.70;0.50;;;;;;;20.55;100.00;101913.28;10441424;28;20047;-77
2023/09/15 06:57:52;;;;;;;0.45;0.45;;;;;;;20.27;100.00;101915.88;10448455;28;20052;-77
2023/09/15 07:02:54;;;;;;;0.68;0.20;;;;;;;20.19;100.00;101914.09;10440966;28;20037;-77
2023/09/15 07:07:55;;;;;;;0.35;0.15;;;;;;;21.28;100.00;101904.50;10445672;28;20056;-76
2023/09/15 07:12:57;;;;;;;1.60;1.02;;;;;;;20.71;100.00;101902.81;10439217;28;20056;-77
2023/09/15 07:17:59;;;;;;;0.10;0.10;;;;;;;22.74;100.00;101894.97;10425869;28;20041;-77
2023/09/15 07:23:03;;;;;;;0.40;0.20;;;;;;;21.32;100.00;101895.75;10448354;28;20052;-77
2023/09/15 07:28:05;;;;;;;0.57;0.20;;;;;;;21.81;100.00;101900.84;10431397;28;20609;-77
2023/09/15 07:33:06;;;;;;;0.22;0.22;;;;;;;22.91;100.00;101886.91;10419461;28;20132;-77
2023/09/15 07:38:08;;;;;;;1.80;0.88;;;;;;;24.08;100.00;101884.66;10442890;28;20110;-77
2023/09/15 07:43:10;;;;;;;0.52;0.35;;;;;;;23.93;100.00;101890.13;10444800;28;20052;-77
2023/09/15 07:48:12;;;;;;;0.10;0.10;;;;;;;24.20;100.00;101878.28;10451509;28;20569;-76
2023/09/15 07:53:14;;;;;;;0.35;0.20;;;;;;;24.11;100.00;101882.84;10434139;28;20059;-77
2023/09/15 07:58:15;;;;;;;0.00;0.00;;;;;;;25.06;100.00;101868.97;10450750;28;20045;-77
2023/09/15 08:03:17;;;;;;;0.00;0.00;;;;;;;24.02;100.00;101868.06;10452385;28;20488;-76
2023/09/15 08:08:19;;;;;;;0.40;0.28;;;;;;;24.02;100.00;101858.38;10451008;28;20518;-77
2023/09/15 08:13:20;;;;;;;0.47;0.10;;;;;;;24.99;100.00;101861.16;10433341;28;20060;-76
2023/09/15 08:18:23;;;;;;;0.00;0.00;;;;;;;26.03;100.00;101853.69;10433607;28;20045;-76
2023/09/15 08:23:24;;;;;;;0.52;0.22;;;;;;;24.86;100.00;101862.28;10422294;28;20049;-77
2023/09/15 08:28:27;;;;;;;2.00;0.10;;;;;;;25.95;100.00;101860.91;10433736;28;20076;-77
2023/09/15 08:33:28;;;;;;;0.45;0.10;;;;;;;25.83;100.00;101855.94;10449518;28;20048;-77
2023/09/15 08:38:32;;;;;;;0.68;0.20;;;;;;;25.37;100.00;101861.28;10449021;28;20492;-77
2023/09/15 08:43:34;;;;;;;0.08;0.08;;;;;;;26.13;100.00;101855.25;10448302;28;20041;-77
2023/09/15 08:48:42;;;;;;;0.60;0.38;;;;;;;25.62;100.00;101866.94;10445489;28;20103;-76
2023/09/15 08:53:45;;;;;;;0.10;0.10;;;;;;;25.43;100.00;101861.19;10449850;28;20052;-76
2023/09/15 08:58:47;;;;;;;0.00;0.00;;;;;;;25.78;100.00;101856.88;10428976;28;20063;-77
2023/09/15 09:03:49;;;;;;;0.00;0.00;;;;;;;26.18;100.00;101836.63;10430727;28;20373;-77
2023/09/15 09:08:51;;;;;;;1.38;1.27;;;;;;;26.44;100.00;101837.75;10448345;28;20045;-77
2023/09/15 09:13:53;;;;;;;0.25;0.05;;;;;;;26.82;100.00;101838.53;10432060;28;20503;-77
2023/09/15 09:19:01;;;;;;;0.38;0.20;;;;;;;26.32;100.00;101835.44;10432204;28;20500;-77
2023/09/15 09:24:03;;;;;;;0.40;0.20;;;;;;;26.24;100.00;101838.25;10443758;28;20571;-76
2023/09/15 09:29:05;;;;;;;0.00;0.00;;;;;;;27.03;100.00;101833.53;10449013;28;20048;-77
2023/09/15 09:34:07;;;;;;;0.30;0.30;;;;;;;27.43;100.00;101832.41;10449168;28;20049;-79
2023/09/15 09:39:09;;;;;;;0.10;0.10;;;;;;;26.87;100.00;101828.69;10445462;28;20053;-80
2023/09/15 09:44:12;;;;;;;0.13;0.13;;;;;;;26.83;100.00;101828.81;10445734;28;20048;-80
2023/09/15 09:49:14;;;;;;;0.10;0.10;;;;;;;27.30;100.00;101817.75;10442205;28;20052;-80
2023/09/15 09:54:16;;;;;;;0.00;0.00;;;;;;;27.10;100.00;101821.88;10444175;28;20103;-81
2023/09/15 09:59:17;;;;;;;0.08;0.05;;;;;;;26.98;100.00;101817.78;10444910;28;20045;-82
2023/09/15 10:04:21;;;;;;;0.05;0.05;;;;;;;28.18;100.00;101815.03;10445035;28;20080;-80
2023/09/15 10:09:24;;;;;;;0.28;0.13;;;;;;;27.68;100.00;101815.75;10444685;28;20136;-81
2023/09/15 10:14:26;;;;;;;0.65;0.20;;;;;;;26.25;100.00;101809.16;10444207;28;20107;-82
2023/09/15 10:19:29;;;;;;;0.20;0.10;;;;;;;26.86;100.00;101808.44;10444882;28;20073;-80
2023/09/15 10:24:31;;;;;;;0.50;0.30;;;;;;;27.35;100.00;101802.63;10446592;28;20411;-81
2023/09/15 10:29:33;;;;;;;0.03;0.03;;;;;;;27.08;100.00;101794.59;10444871;28;20606;-80
2023/09/15 10:34:35;;;;;;;0.60;0.40;;;;;;;26.74;100.00;101793.75;10444943;28;20135;-82
2023/09/15 10:39:39;;;;;;;0.10;0.10;;;;;;;27.45;100.00;101790.88;10444883;28;20051;-80
2023/09/15 10:44:42;;;;;;;0.00;0.00;;;;;;;29.17;100.00;101794.72;10427254;28;20045;-79
2023/09/15 10:49:54;;;;;;;0.10;0.10;;;;;;;28.48;100.00;101783.94;10443864;28;20041;-80
2023/09/15 10:54:56;;;;;;;0.20;0.13;;;;;;;28.84;100.00;101769.44;10444927;28;20119;-79
2023/09/15 10:59:58;;;;;;;0.32;0.13;;;;;;;28.76;100.00;101777.69;10443452;28;20044;-81
2023/09/15 11:05:00;;;;;;;0.00;0.00;;;;;;;28.13;100.00;101762.22;10441272;28;20057;-80
2023/09/15 11:10:02;;;;;;;0.82;0.32;;;;;;;28.25;100.00;101757.41;10451518;28;20052;-78
2023/09/15 11:15:05;;;;;;;0.95;0.20;;;;;;;28.21;100.00;101758.44;10445333;28;20045;-79
2023/09/15 11:20:08;;;;;;;0.10;0.10;;;;;;;28.15;100.00;101748.91;10448716;28;20033;-78
2023/09/15 11:25:10;;;;;;;0.00;0.00;;;;;;;28.55;100.00;101747.50;10437072;28;20053;-78
2023/09/15 11:30:23;;;;;;;0.47;0.47;;;;;;;29.44;100.00;101743.28;10450938;28;20381;-77
2023/09/15 11:35:25;;;;;;;0.10;0.10;;;;;;;28.51;100.00;101740.59;10434412;28;20526;-78
2023/09/15 11:40:27;;;;;;;0.20;0.13;;;;;;;27.26;100.00;101736.78;10451347;28;20045;-78
2023/09/15 11:45:30;;;;;;;0.43;0.30;;;;;;;27.22;100.00;101726.28;10430062;28;20041;-78
2023/09/15 11:50:33;;;;;;;2.00;0.10;;;;;;;28.11;100.00;101737.53;10449682;28;20110;-78
2023/09/15 11:55:35;;;;;;;0.52;0.30;;;;;;;27.76;100.00;101725.50;10450453;28;20056;-79
2023/09/15 12:00:37;;;;;;;0.10;0.10;;;;;;;28.00;100.00;101723.78;10448644;28;20048;-79
2023/09/15 12:05:40;;;;;;;0.63;0.20;;;;;;;27.94;100.00;101716.06;10432704;28;20048;-78
2023/09/15 12:10:42;;;;;;;0.47;0.47;;;;;;;28.09;100.00;101707.63;10451408;28;20128;-79
2023/09/15 12:15:48;;;;;;;0.00;0.00;;;;;;;27.90;100.00;101707.38;10437411;28;20107;-78
2023/09/15 12:20:49;;;;;;;2.15;0.20;;;;;;;28.43;100.00;101709.03;10426126;28;20129;-78
2023/09/15 12:25:51;;;;;;;0.43;0.30;;;;;;;27.72;100.00;101692.97;10434297;28;20052;-78
2023/09/15 12:30:53;;;;;;;0.30;0.30;;;;;;;27.63;100.00;101696.78;10448031;28;20045;-79
2023/09/15 12:35:56;;;;;;;0.10;0.10;;;;;;;27.79;100.00;101680.38;10427574;28;20052;-80
2023/09/15 12:40:57;;;;;;;0.55;0.22;;;;;;;26.92;100.00;101689.28;10432361;28;20049;-80
2023/09/15 12:46:00;;;;;;;0.10;0.10;;;;;;;27.73;100.00;101684.13;10444363;28;20045;-80
2023/09/15 12:51:02;;;;;;;0.00;0.00;;;;;;;28.01;100.00;101677.84;10417530;28;20041;-78
2023/09/15 12:56:04;;;;;;;0.10;0.10;;;;;;;27.86;100.00;101677.47;10433514;28;20051;-79
2023/09/15 13:01:06;;;;;;;0.20;0.20;;;;;;;27.01;100.00;101677.56;10437606;28;20487;-78
2023/09/15 13:06:08;;;;;;;0.47;0.30;;;;;;;27.12;100.00;101671.06;10428478;28;20049;-78
2023/09/15 13:11:11;;;;;;;0.20;0.20;;;;;;;27.27;100.00;101670.56;10444911;28;20044;-80
2023/09/15 13:16:13;;;;;;;0.00;0.00;;;;;;;27.74;100.00;101662.00;10431693;28;20049;-79
2023/09/15 13:21:15;;;;;;;0.05;0.00;;;;;;;28.11;100.00;101658.09;10440274;28;20503;-79
2023/09/15 13:26:16;;;;;;;0.13;0.03;;;;;;;28.18;100.00;101658.75;10435439;28;20404;-80
2023/09/15 13:31:18;;;;;;;0.00;0.00;;;;;;;27.60;100.00;101645.72;10423025;28;20508;-80
2023/09/15 13:36:21;;;;;;;0.20;0.20;;;;;;;28.29;100.00;101634.50;10433091;28;20059;-80
2023/09/15 13:41:24;;;;;;;0.00;0.00;;;;;;;28.84;100.00;101625.38;10421950;28;20052;-79
2023/09/15 13:46:26;;;;;;;0.55;0.17;;;;;;;27.99;100.00;101630.25;10439598;28;20765;-79
2023/09/15 13:51:28;;;;;;;0.10;0.05;;;;;;;27.61;100.00;101615.69;10434757;28;20128;-79
2023/09/15 13:56:42;;;;;;;0.85;0.28;;;;;;;27.64;100.00;101621.75;10443382;28;20527;-78
2023/09/15 14:01:43;;;;;;;0.00;0.00;;;;;;;28.48;100.00;101611.66;10436667;28;20453;-77
2023/09/15 14:06:47;;;;;;;0.00;0.00;;;;;;;27.38;100.00;101604.97;10440021;28;20052;-78
2023/09/15 14:11:48;;;;;;;0.00;0.00;;;;;;;27.62;100.00;101597.13;10436289;28;20412;-78
2023/09/15 14:16:50;;;;;;;0.10;0.10;;;;;;;27.85;100.00;101588.38;10446990;28;20037;-78
2023/09/15 14:21:52;;;;;;;0.80;0.47;;;;;;;28.48;100.00;101593.13;10446311;28;20033;-78
2023/09/15 14:26:53;;;;;;;0.80;0.80;;;;;;;27.20;100.00;101589.69;10426286;28;20135;-78
2023/09/15 14:31:55;;;;;;;0.08;0.03;;;;;;;26.98;100.00;101584.25;10444907;28;20045;-77
2023/09/15 14:37:00;;;;;;;0.10;0.05;;;;;;;28.35;100.00;101581.28;10431957;28;20052;-79
2023/09/15 14:42:02;;;;;;;0.00;0.00;;;;;;;27.83;100.00;101590.19;10444591;28;20461;-77
2023/09/15 14:47:04;;;;;;;0.40;0.20;;;;;;;26.68;100.00;101571.06;10447257;28;20413;-77
2023/09/15 14:52:05;;;;;;;0.20;0.20;;;;;;;27.57;100.00;101583.19;10421703;28;20041;-78
2023/09/15 14:57:07;;;;;;;2.13;0.20;;;;;;;27.35;100.00;101578.59;10441566;28;20060;-77
2023/09/15 15:02:13;;;;;;;0.00;0.00;;;;;;;27.53;100.00;101577.13;10437827;28;20408;-78
2023/09/15 15:07:15;;;;;;;0.03;0.03;;;;;;;27.68;100.00;101585.44;10432148;28;20509;-78
2023/09/15 15:12:19;;;;;;;0.10;0.05;;;;;;;26.89;100.00;101575.72;10443335;28;20132;-79
2023/09/15 15:17:21;;;;;;;0.17;0.17;;;;;;;27.30;100.00;101563.78;10447684;28;20547;-77
2023/09/15 15:22:23;;;;;;;0.55;0.30;;;;;;;27.55;100.00;101567.38;10449105;28;20512;-77
2023/09/15 15:27:25;;;;;;;0.10;0.10;;;;;;;27.23;100.00;101564.00;10452158;28;20189;-78
2023/09/15 15:32:27;;;;;;;0.15;0.15;;;;;;;27.63;100.00;101556.50;10439673;28;20120;-76
2023/09/15 15:37:28;;;;;;;0.13;0.13;;;;;;;27.89;100.00;101548.56;10419955;28;20156;-77
2023/09/15 15:42:32;;;;;;;0.20;0.10;;;;;;;28.23;100.00;101549.97;10444243;28;20049;-77
2023/09/15 15:47:34;;;;;;;0.00;0.00;;;;;;;27.11;100.00;101545.91;10440331;28;20057;-78
2023/09/15 15:52:35;;;;;;;0.10;0.10;;;;;;;26.97;100.00;101546.34;10418337;28;20103;-78
2023/09/15 15:57:37;;;;;;;0.30;0.20;;;;;;;27.08;100.00;101538.06;10450196;28;20048;-77
2023/09/15 16:02:39;;;;;;;0.00;0.00;;;;;;;27.55;100.00;101542.69;10433339;28;20057;-77
2023/09/15 16:07:40;;;;;;;0.00;0.00;;;;;;;26.91;100.00;101536.88;10450513;28;20111;-76
2023/09/15 16:12:42;;;;;;;0.50;0.20;;;;;;;26.83;100.00;101536.25;10432789;28;20132;-78
2023/09/15 16:17:44;;;;;;;0.00;0.00;;;;;;;26.99;100.00;101535.75;10432963;28;20512;-78
2023/09/15 16:22:47;;;;;;;0.00;0.00;;;;;;;27.09;100.00;101529.22;10449543;28;20057;-77
2023/09/15 16:27:48;;;;;;;0.10;0.05;;;;;;;26.61;100.00;101522.81;10432859;28;20049;-77
2023/09/15 16:32:50;;;;;;;0.10;0.10;;;;;;;26.72;100.00;101526.00;10450932;28;20053;-77
2023/09/15 16:37:52;;;;;;;0.00;0.00;;;;;;;26.62;100.00;101529.00;10426673;28;20052;-77
2023/09/15 16:42:54;;;;;;;0.10;0.10;;;;;;;26.46;100.00;101518.91;10440304;28;20484;-77
2023/09/15 16:47:56;;;;;;;0.00;0.00;;;;;;;26.69;100.00;101519.94;10449073;28;20048;-76
2023/09/15 16:52:57;;;;;;;0.38;0.38;;;;;;;25.99;100.00;101524.63;10449535;28;20083;-77
2023/09/15 16:57:59;;;;;;;0.30;0.05;;;;;;;25.77;100.00;101522.63;10447363;28;20227;-77
2023/09/15 17:03:00;;;;;;;0.03;0.03;;;;;;;25.85;100.00;101517.13;10429652;28;20041;-77
2023/09/15 17:08:04;;;;;;;0.32;0.30;;;;;;;25.10;100.00;101522.63;10449358;28;20086;-77
2023/09/15 17:13:06;;;;;;;0.08;0.00;;;;;;;25.32;100.00;101523.81;10448310;28;20087;-77
2023/09/15 17:18:08;;;;;;;0.10;0.10;;;;;;;25.22;100.00;101516.16;10451837;28;20048;-76
2023/09/15 17:23:09;;;;;;;0.73;0.43;;;;;;;25.05;100.00;101521.88;10448738;28;20091;-76
2023/09/15 17:28:12;;;;;;;0.03;0.03;;;;;;;25.13;100.00;101517.28;10450734;28;20052;-76
2023/09/15 17:33:14;;;;;;;0.30;0.25;;;;;;;24.86;100.00;101519.69;10449259;28;20098;-77
2023/09/15 17:38:16;;;;;;;0.00;0.00;;;;;;;24.55;100.00;101510.72;10435904;28;20047;-77
2023/09/15 17:43:18;;;;;;;0.10;0.08;;;;;;;24.37;100.00;101511.13;10438630;28;20049;-77
2023/09/15 17:48:20;;;;;;;0.52;0.10;;;;;;;24.11;100.00;101519.56;10431526;28;20431;-76
2023/09/15 17:53:21;;;;;;;0.00;0.00;;;;;;;24.00;100.00;101523.31;10431848;28;20045;-76
2023/09/15 17:58:23;;;;;;;0.00;0.00;;;;;;;23.83;100.00;101528.00;10448174;28;20052;-76
2023/09/15 18:03:25;;;;;;;0.00;0.00;;;;;;;23.50;100.00;101522.47;10437585;28;20139;-76
2023/09/15 18:08:26;;;;;;;0.00;0.00;;;;;;;23.25;100.00;101528.19;10446888;28;20037;-77
2023/09/15 18:13:28;;;;;;;0.10;0.10;;;;;;;22.85;100.00;101524.44;10449852;28;20041;-77
2023/09/15 18:18:29;;;;;;;0.00;0.00;;;;;;;22.99;100.00;101521.56;10446966;28;20071;-76
2023/09/15 18:23:31;;;;;;;0.00;0.00;;;;;;;22.87;100.00;101522.63;10429849;28;20080;-77
2023/09/15 18:28:33;;;;;;;0.20;0.13;;;;;;;22.85;100.00;101524.44;10448328;28;20048;-77
2023/09/15 18:33:36;;;;;;;0.15;0.10;;;;;;;22.49;100.00;101535.44;10429802;28;20045;-77
2023/09/15 18:38:37;;;;;;;0.00;0.00;;;;;;;22.30;100.00;101528.69;10427900;28;20096;-77
2023/09/15 18:43:39;;;;;;;0.08;0.05;;;;;;;22.14;100.00;101535.88;10439393;28;20171;-76
2023/09/15 18:48:41;;;;;;;0.38;0.38;;;;;;;21.90;100.00;101529.16;10420643;28;20072;-77
2023/09/15 18:53:43;;;;;;;0.00;0.00;;;;;;;21.50;100.00;101531.28;10417409;28;20377;-77
2023/09/15 18:58:44;;;;;;;0.15;0.15;;;;;;;21.87;100.00;101523.06;10432282;28;20361;-76
2023/09/15 19:03:46;;;;;;;0.00;0.00;;;;;;;21.55;100.00;101529.50;10429686;28;20071;-77
2023/09/15 19:08:48;;;;;;;0.03;0.03;;;;;;;21.24;100.00;101521.94;10447728;28;20075;-77
2023/09/15 19:13:50;;;;;;;0.20;0.20;;;;;;;20.87;100.00;101523.94;10448818;28;20563;-77
2023/09/15 19:18:52;;;;;;;0.00;0.00;;;;;;;20.88;100.00;101518.72;10447864;28;20080;-76
2023/09/15 19:23:57;;;;;;;0.32;0.22;;;;;;;20.90;100.00;101511.69;10435514;28;20460;-77
2023/09/15 19:28:58;;;;;;;0.20;0.20;;;;;;;20.84;100.00;101511.75;10434116;28;20044;-76
2023/09/15 19:34:00;;;;;;;0.00;0.00;;;;;;;20.72;100.00;101512.72;10426854;28;20042;-77
2023/09/15 19:39:03;;;;;;;0.00;0.00;;;;;;;20.67;100.00;101513.56;10445156;28;20077;-76
2023/09/15 19:44:05;;;;;;;0.10;0.08;;;;;;;20.47;100.00;101513.72;10432744;28;20503;-77
2023/09/15 19:49:06;;;;;;;0.00;0.00;;;;;;;20.48;100.00;101515.47;10454135;28;20049;-77
2023/09/15 19:54:08;;;;;;;0.55;0.10;;;;;;;20.21;100.00;101520.81;10451580;28;20053;-77
2023/09/15 19:59:10;;;;;;;0.00;0.00;;;;;;;20.20;100.00;101518.19;10453259;28;20412;-77
2023/09/15 20:04:13;;;;;;;0.08;0.08;;;;;;;19.89;100.00;101519.19;10448870;28;20516;-77
2023/09/15 20:09:15;;;;;;;0.55;0.40;;;;;;;20.20;100.00;101506.00;10440578;28;20454;-77
2023/09/15 20:14:18;;;;;;;0.30;0.20;;;;;;;19.65;100.00;101520.94;10418744;28;20137;-76
2023/09/15 20:19:20;;;;;;;0.52;0.20;;;;;;;20.06;100.00;101506.03;10440763;28;20064;-77
2023/09/15 20:24:22;;;;;;;0.38;0.10;;;;;;;19.63;100.00;101511.38;10458450;28;20045;-77
2023/09/15 20:29:23;;;;;;;0.17;0.17;;;;;;;20.03;100.00;101494.72;10428495;28;20046;-76
2023/09/15 20:34:27;;;;;;;0.65;0.40;;;;;;;19.25;100.00;101500.09;10435836;28;20049;-76
2023/09/15 20:39:29;;;;;;;0.32;0.20;;;;;;;19.36;100.00;101497.47;10452335;28;20500;-76
2023/09/15 20:44:31;;;;;;;0.50;0.25;;;;;;;19.74;100.00;101487.81;10441724;28;20053;-77
2023/09/15 20:49:33;;;;;;;0.73;0.43;;;;;;;20.05;100.00;101492.97;10444819;28;20080;-77
2023/09/15 20:54:37;;;;;;;0.10;0.10;;;;;;;19.80;100.00;101503.50;10450587;28;20052;-77
2023/09/15 20:59:39;;;;;;;0.40;0.35;;;;;;;19.81;100.00;101489.53;10443657;28;20119;-77
2023/09/15 21:04:40;;;;;;;0.68;0.30;;;;;;;19.27;100.00;101490.53;10452457;28;20052;-77
2023/09/15 21:09:42;;;;;;;0.10;0.10;;;;;;;19.28;100.00;101500.09;10451360;28;20049;-77
2023/09/15 21:14:44;;;;;;;0.22;0.17;;;;;;;19.58;100.00;101494.84;10454853;28;20056;-77
2023/09/15 21:19:46;;;;;;;0.93;0.40;;;;;;;19.59;100.00;101488.72;10449416;28;20527;-77
2023/09/15 21:24:47;;;;;;;0.30;0.30;;;;;;;19.53;100.00;101494.84;10453137;28;20480;-77
2023/09/15 21:29:49;;;;;;;0.75;0.35;;;;;;;19.53;100.00;101500.06;10454166;28;20091;-77
2023/09/15 21:34:51;;;;;;;0.00;0.00;;;;;;;19.13;100.00;101501.00;10447945;28;20049;-77
2023/09/15 21:39:52;;;;;;;0.05;0.05;;;;;;;19.29;100.00;101499.22;10452395;28;20054;-77
2023/09/15 21:44:54;;;;;;;0.15;0.00;;;;;;;19.23;100.00;101496.63;10436466;28;20049;-77
2023/09/15 21:49:56;;;;;;;0.43;0.20;;;;;;;19.16;100.00;101506.19;10431212;28;20433;-77
2023/09/15 21:54:57;;;;;;;0.22;0.17;;;;;;;19.13;100.00;101494.88;10439960;28;20099;-77
2023/09/15 21:59:59;;;;;;;0.00;0.00;;;;;;;19.32;100.00;101500.97;10439669;28;20059;-77
2023/09/15 22:05:12;;;;;;;0.00;0.00;;;;;;;18.59;100.00;101511.31;10434528;28;20064;-77
2023/09/15 22:10:13;;;;;;;0.00;0.00;;;;;;;18.53;100.00;101508.69;10451892;28;20055;-77
2023/09/15 22:15:16;;;;;;;0.28;0.10;;;;;;;18.79;100.00;101500.06;10429678;28;20041;-77
2023/09/15 22:20:26;;;;;;;0.15;0.10;;;;;;;18.98;100.00;101494.00;10432677;28;20349;-77
2023/09/15 22:25:28;;;;;;;0.52;0.22;;;;;;;18.90;100.00;101503.53;10432240;28;20459;-77
2023/09/15 22:30:32;;;;;;;0.00;0.00;;;;;;;18.76;100.00;101497.44;10433447;28;20061;-77
2023/09/15 22:35:34;;;;;;;0.00;0.00;;;;;;;19.14;100.00;101491.41;10431911;28;20049;-77
2023/09/15 22:40:35;;;;;;;0.00;0.00;;;;;;;18.81;100.00;101487.88;10437417;28;20507;-77
2023/09/15 22:45:37;;;;;;;0.25;0.20;;;;;;;19.07;100.00;101484.44;10425623;28;20067;-77
2023/09/15 22:50:39;;;;;;;0.13;0.10;;;;;;;18.71;100.00;101487.88;10445298;28;20057;-77
2023/09/15 22:55:41;;;;;;;0.15;0.15;;;;;;;18.86;100.00;101486.16;10448430;28;20068;-77